Harbor Springs, MI

3:27 AM EDT on August 24, 2017 (GMT -0400)
Harbor Springs | | Change Station

Elev 686 ft 45.43 °N, 84.92 °W | Updated 12 minutes ago

Mostly Cloudy
Mostly Cloudy
46 °F
Feels Like 45 °F
N
4
Wind Variable Wind from NNW

Today
High -- | Low -- °F
--% Chance of Precip.
Yesterday
High -- | Low -- °F
Precip. -- in
Pressure 30.04 in
Visibility 10.0 miles
Clouds Mostly Cloudy 3700 ft
Windchill 45 °F
Dew Point 45 °F
Humidity 93%
Rainfall 0.00 in
Snow Depth Not available.
6:51 AM 8:31 PM
Waxing Crescent, 8% visible
METAR KMGN 240715Z AUTO 34003KT 10SM BKN037 07/07 A3004 RMK AO2 T00800070
Pressure 30.04 in
Visibility 10.0 miles
Clouds Mostly Cloudy 3700 ft
Windchill 45 °F
Dew Point 45 °F
Humidity 93%
Rainfall 0.00 in
Snow Depth Not available.
6:51 AM 8:31 PM
Waxing Crescent, 8% visible
METAR KMGN 240715Z AUTO 34003KT 10SM BKN037 07/07 A3004 RMK AO2 T00800070

Get Severe Weather Alerts

Thanks for signing up!

Be on the lookout for a verification email in your inbox.

You'll start receiving the daily forecast at 6 AM.

×

10-Day Weather Forecast

Almanac

Astronomy

Aug. 24, 2017 Rise Set
Actual Time
Civil Twilight
Nautical Twilight
Astronomical Twilight
Moon
Length of Visible Light
Length of Day
Tomorrow will be .
, % of the Moon is Illuminated

Today's Extremes

State Highs State Lows

Community

WunderPhotos

Category 6

Welcome to Category 6. This is the collective home for Weather Underground's featured writeups by Dr. Jeff Masters (right), Bob Henson (left), Chris Burt, and other regular contributors.

Nearby

Air Quality

  Air Quality AQ Index Pollutant
Not available.

Snow Depth

Station Depth Elevation

Earthquake Activity

City Distance Mag. Time & Date
Minimum magnitude displayed is 2.5.

Coastal Water Temperatures

Place Temperature

Stations

Nearby Weather Stations

Station Location Temp. Windchill Dew Point Humidity Wind Precip. Elev Updated Type
                   

Watches & Warnings

There are currently no watches in effect.